createdAt,value
2019-05-23T00:02:49.061Z,15.52
2019-05-23T00:05:53.820Z,15.43
2019-05-23T00:08:26.833Z,15.34
2019-05-23T00:11:01.935Z,15.31
2019-05-23T00:13:49.117Z,15.23
2019-05-23T00:16:23.505Z,15.14
2019-05-23T00:18:53.936Z,15.06
2019-05-23T00:21:24.028Z,15.04
2019-05-23T00:23:54.652Z,14.99
2019-05-23T00:26:26.188Z,14.91
2019-05-23T00:29:09.087Z,14.86
2019-05-23T00:31:35.621Z,14.85
2019-05-23T00:34:09.932Z,14.83
2019-05-23T00:36:40.201Z,14.81
2019-05-23T00:39:14.659Z,14.79
2019-05-23T00:41:44.826Z,14.74
2019-05-23T00:44:17.504Z,14.66
2019-05-23T00:46:47.440Z,14.62
2019-05-23T00:49:18.605Z,14.58
2019-05-23T00:51:48.664Z,14.56
2019-05-23T00:54:19.420Z,14.55
2019-05-23T00:56:49.702Z,14.49
2019-05-23T00:59:26.909Z,14.47
2019-05-23T01:01:51.071Z,14.42
2019-05-23T01:04:22.113Z,14.42
2019-05-23T01:06:56.185Z,14.39
2019-05-23T01:09:27.584Z,14.36
2019-05-23T01:11:57.728Z,14.27
2019-05-23T01:14:29.468Z,14.25
2019-05-23T01:17:00.978Z,14.22
2019-05-23T01:19:38.113Z,14.17
2019-05-23T01:22:06.974Z,14.14
2019-05-23T01:24:39.455Z,14.09
2019-05-23T01:27:09.062Z,14.04
2019-05-23T01:29:42.057Z,13.96
2019-05-23T01:32:25.919Z,13.93
2019-05-23T01:34:56.605Z,13.90
2019-05-23T01:37:26.194Z,13.87
2019-05-23T01:39:56.094Z,13.84
2019-05-23T01:42:28.394Z,13.82
2019-05-23T01:44:59.409Z,13.83
2019-05-23T01:47:29.393Z,13.79
2019-05-23T01:50:00.156Z,13.77
2019-05-23T01:52:30.027Z,13.76
2019-05-23T01:55:00.575Z,13.70
2019-05-23T01:57:31.899Z,13.67
2019-05-23T02:00:10.039Z,13.69
2019-05-23T02:02:36.233Z,13.77
2019-05-23T02:05:09.233Z,13.81
2019-05-23T02:07:39.060Z,13.80
2019-05-23T02:10:09.752Z,13.77
2019-05-23T02:12:39.455Z,13.74
2019-05-23T02:15:11.986Z,13.64
2019-05-23T02:17:42.052Z,13.44
2019-05-23T02:20:14.190Z,13.30
2019-05-23T02:22:44.188Z,13.16
2019-05-23T02:25:16.918Z,13.00
2019-05-23T02:27:48.370Z,12.89
2019-05-23T02:30:33.906Z,12.78
2019-05-23T02:32:52.969Z,12.70
2019-05-23T02:35:22.850Z,12.63
2019-05-23T02:38:08.070Z,12.56
2019-05-23T02:40:49.562Z,12.53
2019-05-23T02:43:22.878Z,12.44
2019-05-23T02:45:55.769Z,12.34
2019-05-23T02:48:29.078Z,12.26
2019-05-23T02:51:03.166Z,12.23
2019-05-23T02:53:37.367Z,12.24
2019-05-23T02:56:11.776Z,12.25
2019-05-23T02:58:55.931Z,12.26
2019-05-23T03:01:46.481Z,12.29
2019-05-23T03:04:21.623Z,12.30
2019-05-23T03:06:54.102Z,12.34
2019-05-23T03:09:26.548Z,12.37
2019-05-23T03:12:00.653Z,12.39
2019-05-23T03:14:31.159Z,12.41
2019-05-23T03:17:03.706Z,12.42
2019-05-23T03:19:39.310Z,12.42
2019-05-23T03:22:31.710Z,12.44
2019-05-23T03:25:04.746Z,12.39
2019-05-23T03:27:39.810Z,12.36
2019-05-23T03:30:20.139Z,12.31
2019-05-23T03:32:52.645Z,12.28
2019-05-23T03:35:31.986Z,12.25
2019-05-23T03:38:02.389Z,12.24
2019-05-23T03:40:32.145Z,12.23
2019-05-23T03:43:02.215Z,12.21
2019-05-23T03:45:33.552Z,12.17
2019-05-23T03:48:05.326Z,12.17
2019-05-23T03:50:35.535Z,12.16
2019-05-23T03:53:06.279Z,12.14
2019-05-23T03:55:36.484Z,12.12
2019-05-23T03:58:06.563Z,12.07
2019-05-23T04:00:41.517Z,12.07
2019-05-23T04:03:11.289Z,12.04
2019-05-23T04:05:43.175Z,12.06
2019-05-23T04:08:12.970Z,12.02
2019-05-23T04:10:42.497Z,11.99
2019-05-23T04:13:12.146Z,11.98
2019-05-23T04:15:41.829Z,11.96
2019-05-23T04:18:11.273Z,11.95
2019-05-23T04:20:44.705Z,11.92
2019-05-23T04:23:18.188Z,11.96
2019-05-23T04:25:47.558Z,11.98
2019-05-23T04:28:17.009Z,11.98
2019-05-23T04:30:46.406Z,11.99
2019-05-23T04:33:15.957Z,12.00
2019-05-23T04:35:45.801Z,12.01
2019-05-23T04:38:16.182Z,12.01
2019-05-23T04:40:45.635Z,11.99
2019-05-23T04:43:15.173Z,12.05
2019-05-23T04:45:44.842Z,12.07
2019-05-23T04:48:15.246Z,12.09
2019-05-23T04:50:45.585Z,12.08
2019-05-23T04:53:15.001Z,12.03
2019-05-23T04:55:45.799Z,11.96
2019-05-23T04:58:15.442Z,11.90
2019-05-23T05:00:44.780Z,11.83
2019-05-23T05:03:18.172Z,11.79
2019-05-23T05:05:46.973Z,11.74
2019-05-23T05:08:17.608Z,11.73
2019-05-23T05:10:47.335Z,11.73
2019-05-23T05:13:17.055Z,11.76
2019-05-23T05:15:46.421Z,11.79
2019-05-23T05:18:16.276Z,11.78
2019-05-23T05:20:45.879Z,11.80
2019-05-23T05:23:15.725Z,11.78
2019-05-23T05:25:45.097Z,11.77
2019-05-23T05:28:14.625Z,11.76
2019-05-23T05:30:44.341Z,11.78
2019-05-23T05:33:16.321Z,11.79
2019-05-23T05:35:45.827Z,11.78
2019-05-23T05:38:16.618Z,11.80
2019-05-23T05:40:46.759Z,11.80
2019-05-23T05:43:17.144Z,11.77
2019-05-23T05:45:46.643Z,11.75
2019-05-23T05:48:16.302Z,11.76
2019-05-23T05:50:45.706Z,11.75
2019-05-23T05:53:17.854Z,11.77
2019-05-23T05:55:49.153Z,11.76
2019-05-23T05:58:19.165Z,11.77
2019-05-23T06:00:56.577Z,11.81
2019-05-23T06:04:12.008Z,11.95
2019-05-23T06:06:49.998Z,11.92
2019-05-23T06:09:29.739Z,11.96
2019-05-23T06:12:07.863Z,12.02
2019-05-23T06:14:31.763Z,12.08
2019-05-23T06:17:03.193Z,12.12
2019-05-23T06:19:32.598Z,12.14
2019-05-23T06:22:02.405Z,12.10
2019-05-23T06:24:46.838Z,12.07
2019-05-23T06:27:10.734Z,12.03
2019-05-23T06:29:40.495Z,12.01
2019-05-23T06:32:12.461Z,12.00
2019-05-23T06:34:42.260Z,12.01
2019-05-23T06:37:12.175Z,12.00
2019-05-23T06:39:42.599Z,12.03
2019-05-23T06:42:12.012Z,12.07
2019-05-23T06:44:41.378Z,12.05
2019-05-23T06:47:11.390Z,12.04
2019-05-23T06:49:41.005Z,12.05
2019-05-23T06:52:10.629Z,12.03
2019-05-23T06:54:40.004Z,12.05
2019-05-23T06:57:09.801Z,12.09
2019-05-23T06:59:39.221Z,12.18
2019-05-23T07:02:08.698Z,12.25
2019-05-23T07:04:40.758Z,12.38
2019-05-23T07:07:10.677Z,12.46
2019-05-23T07:09:41.676Z,12.60
2019-05-23T07:12:11.100Z,12.78
2019-05-23T07:14:40.593Z,13.00
2019-05-23T07:17:10.826Z,13.24
2019-05-23T07:19:40.241Z,13.39
2019-05-23T07:22:10.485Z,13.51
2019-05-23T07:24:56.915Z,13.60
2019-05-23T07:27:11.657Z,13.63
2019-05-23T07:29:41.060Z,13.62
2019-05-23T07:32:10.813Z,13.68
2019-05-23T07:34:40.265Z,13.68
2019-05-23T07:37:09.798Z,13.65
2019-05-23T07:39:39.197Z,13.62
2019-05-23T07:42:10.490Z,13.61
2019-05-23T07:44:48.430Z,13.59
2019-05-23T07:47:12.864Z,13.50
2019-05-23T07:49:43.085Z,13.47
2019-05-23T07:52:12.778Z,13.53
2019-05-23T07:54:56.824Z,13.70
2019-05-23T07:57:26.506Z,13.80
2019-05-23T08:00:05.184Z,13.99
2019-05-23T08:02:40.703Z,14.22
2019-05-23T08:05:13.618Z,14.54
2019-05-23T08:07:43.256Z,14.88
2019-05-23T08:10:12.746Z,15.25
2019-05-23T08:12:43.017Z,15.65
2019-05-23T08:15:12.786Z,15.88
2019-05-23T08:17:42.564Z,16.03
2019-05-23T08:20:12.848Z,16.02
2019-05-23T08:22:42.280Z,15.89
2019-05-23T08:25:11.803Z,15.79
2019-05-23T08:27:41.890Z,15.71
2019-05-23T08:30:13.214Z,15.63
2019-05-23T08:32:42.985Z,15.53
2019-05-23T08:35:17.375Z,15.64
2019-05-23T08:37:43.905Z,15.73
2019-05-23T08:40:15.243Z,15.83
2019-05-23T08:42:47.479Z,15.92
2019-05-23T08:45:17.715Z,15.87
2019-05-23T08:47:47.134Z,15.95
2019-05-23T08:50:17.130Z,15.94
2019-05-23T08:52:46.505Z,15.99
2019-05-23T08:55:26.512Z,16.01
2019-05-23T08:57:56.658Z,16.09
2019-05-23T09:00:28.030Z,16.18
2019-05-23T09:02:59.330Z,16.08
2019-05-23T09:05:32.950Z,15.95
2019-05-23T09:08:03.002Z,15.94
2019-05-23T09:10:32.944Z,16.06
2019-05-23T09:13:02.327Z,16.18
2019-05-23T09:15:31.985Z,16.22
2019-05-23T09:18:02.088Z,16.24
2019-05-23T09:20:31.943Z,16.11
2019-05-23T09:23:01.707Z,16.05
2019-05-23T09:25:33.911Z,16.01
2019-05-23T09:28:03.539Z,16.08
2019-05-23T09:30:34.688Z,16.08
2019-05-23T09:33:05.763Z,15.93
2019-05-23T09:35:36.109Z,15.89
2019-05-23T09:38:05.904Z,15.83
2019-05-23T09:40:35.452Z,15.83
2019-05-23T09:43:07.232Z,15.79
2019-05-23T09:45:37.388Z,15.81
2019-05-23T09:48:07.572Z,15.94
2019-05-23T09:50:37.385Z,16.06
2019-05-23T09:53:07.196Z,16.39
2019-05-23T09:55:37.375Z,16.53
2019-05-23T09:58:06.880Z,16.62
2019-05-23T10:00:37.258Z,16.59
2019-05-23T10:03:07.154Z,16.53
2019-05-23T10:05:43.334Z,16.70
2019-05-23T10:08:09.259Z,16.85
2019-05-23T10:10:38.701Z,16.88
2019-05-23T10:13:09.331Z,16.83
2019-05-23T10:16:02.859Z,16.61
2019-05-23T10:18:32.541Z,16.56
2019-05-23T10:21:04.292Z,16.56
2019-05-23T10:23:34.676Z,16.45
2019-05-23T10:26:05.202Z,16.44
2019-05-23T10:28:34.786Z,16.51
2019-05-23T10:31:06.036Z,16.64
2019-05-23T10:33:35.956Z,16.87
2019-05-23T10:36:05.609Z,17.02
2019-05-23T10:38:35.237Z,16.99
2019-05-23T10:41:05.123Z,16.95
2019-05-23T10:43:34.537Z,16.71
2019-05-23T10:46:04.043Z,16.54
2019-05-23T10:48:35.832Z,16.46
2019-05-23T10:51:05.381Z,16.47
2019-05-23T10:53:35.159Z,16.64
2019-05-23T10:56:04.867Z,16.75
2019-05-23T10:58:35.319Z,16.87
2019-05-23T11:01:05.356Z,16.92
2019-05-23T11:03:37.256Z,17.04
2019-05-23T11:06:16.091Z,17.16
2019-05-23T11:08:40.191Z,17.18
2019-05-23T11:11:13.938Z,17.20
2019-05-23T11:13:44.605Z,17.25
2019-05-23T11:16:14.691Z,17.27
2019-05-23T11:18:44.200Z,17.27
2019-05-23T11:21:13.665Z,17.26
2019-05-23T11:23:48.225Z,17.22
2019-05-23T11:26:17.911Z,17.25
2019-05-23T11:28:47.748Z,17.17
2019-05-23T11:31:17.921Z,17.08
2019-05-23T11:33:47.720Z,17.05
2019-05-23T11:36:33.686Z,16.99
2019-05-23T11:38:48.591Z,16.99
2019-05-23T11:41:18.184Z,17.03
2019-05-23T11:43:47.546Z,17.19
2019-05-23T11:46:21.783Z,17.29
2019-05-23T11:48:51.846Z,17.39
2019-05-23T11:51:25.117Z,17.40
2019-05-23T11:54:06.507Z,17.42
2019-05-23T11:56:24.304Z,17.48
2019-05-23T11:58:53.726Z,17.41
2019-05-23T12:01:44.913Z,17.44
2019-05-23T12:04:22.178Z,17.53
2019-05-23T12:07:10.862Z,17.69
2019-05-23T12:09:40.477Z,17.70
2019-05-23T12:12:09.992Z,17.65
2019-05-23T12:14:41.441Z,17.66
2019-05-23T12:17:11.962Z,17.53
2019-05-23T12:19:41.842Z,17.34
2019-05-23T12:22:12.380Z,17.40
2019-05-23T12:24:41.971Z,17.53
2019-05-23T12:27:12.078Z,17.59
2019-05-23T12:29:41.502Z,17.70
2019-05-23T12:32:12.709Z,17.72
2019-05-23T12:34:42.175Z,17.72
2019-05-23T12:37:18.918Z,17.72
2019-05-23T12:39:43.241Z,17.70
2019-05-23T12:42:12.673Z,17.67
2019-05-23T12:44:42.126Z,17.82
2019-05-23T12:47:25.351Z,17.82
2019-05-23T12:50:00.511Z,17.89
2019-05-23T12:52:35.601Z,17.86
2019-05-23T12:55:06.260Z,18.00
2019-05-23T12:57:35.733Z,18.08
2019-05-23T13:00:08.184Z,18.15
2019-05-23T13:02:37.718Z,18.24
2019-05-23T13:05:09.269Z,18.30
2019-05-23T13:07:39.590Z,18.29
2019-05-23T13:10:09.683Z,18.33
2019-05-23T13:12:39.415Z,18.23
2019-05-23T13:15:09.234Z,18.22
2019-05-23T13:17:38.715Z,18.16
2019-05-23T13:20:09.036Z,18.19
2019-05-23T13:22:38.978Z,18.13
2019-05-23T13:25:08.563Z,18.10
2019-05-23T13:27:38.531Z,18.06
2019-05-23T13:30:09.044Z,18.02
2019-05-23T13:32:38.755Z,17.95
2019-05-23T13:35:08.729Z,17.88
2019-05-23T13:37:52.403Z,17.92
2019-05-23T13:40:11.326Z,18.02
2019-05-23T13:42:40.713Z,17.95
2019-05-23T13:45:10.717Z,17.98
2019-05-23T13:47:40.097Z,18.08
2019-05-23T13:50:10.294Z,18.24
2019-05-23T13:52:40.758Z,18.34
2019-05-23T13:55:12.503Z,18.45
2019-05-23T13:57:41.943Z,18.52
2019-05-23T14:00:14.984Z,18.57
2019-05-23T14:02:44.497Z,18.57
2019-05-23T14:05:18.751Z,18.64
2019-05-23T14:08:12.230Z,18.61
2019-05-23T14:10:35.276Z,18.64
2019-05-23T14:13:05.103Z,18.60
2019-05-23T14:15:39.748Z,18.46
2019-05-23T14:18:12.681Z,18.41
2019-05-23T14:20:42.295Z,18.31
2019-05-23T14:23:30.758Z,18.31
2019-05-23T14:26:11.048Z,18.36
2019-05-23T14:28:41.808Z,18.32
2019-05-23T14:31:23.775Z,18.38
2019-05-23T14:33:55.703Z,18.41
2019-05-23T14:36:56.258Z,18.45
2019-05-23T14:39:39.690Z,18.52
2019-05-23T14:42:28.841Z,18.58
2019-05-23T14:44:58.721Z,18.67
2019-05-23T14:47:56.242Z,18.76
2019-05-23T14:50:46.468Z,18.68
2019-05-23T14:53:19.070Z,18.64
2019-05-23T14:55:50.459Z,18.61
2019-05-23T14:58:21.273Z,18.52
2019-05-23T15:00:50.763Z,18.48
2019-05-23T15:03:20.533Z,18.48
2019-05-23T15:05:50.061Z,18.44
2019-05-23T15:08:22.887Z,18.44
2019-05-23T15:10:53.545Z,18.40
2019-05-23T15:13:23.021Z,18.36
2019-05-23T15:15:52.441Z,18.43
2019-05-23T15:18:21.895Z,18.49
2019-05-23T15:20:51.328Z,18.57
2019-05-23T15:23:20.705Z,18.57
2019-05-23T15:25:50.151Z,18.75
2019-05-23T15:28:19.500Z,19.13
2019-05-23T15:30:48.958Z,19.61
2019-05-23T15:33:18.376Z,20.23
2019-05-23T15:35:48.815Z,20.80
2019-05-23T15:38:18.294Z,21.32
2019-05-23T15:40:47.778Z,21.84
2019-05-23T15:43:17.165Z,22.29
2019-05-23T15:45:46.767Z,22.67
2019-05-23T15:48:16.174Z,22.87
2019-05-23T15:50:49.889Z,23.23
2019-05-23T15:53:40.130Z,23.42
2019-05-23T15:56:31.053Z,23.58
2019-05-23T15:59:18.100Z,23.74
2019-05-23T16:01:57.897Z,24.16
2019-05-23T16:04:27.713Z,24.79
2019-05-23T16:06:57.310Z,24.89
2019-05-23T16:09:30.182Z,25.12
2019-05-23T16:11:58.668Z,25.40
2019-05-23T16:14:29.355Z,25.46
2019-05-23T16:16:59.109Z,25.55
2019-05-23T16:19:28.563Z,25.73
2019-05-23T16:21:58.131Z,25.87
2019-05-23T16:24:28.032Z,25.96
2019-05-23T16:26:57.454Z,26.06
2019-05-23T16:29:27.447Z,26.31
2019-05-23T16:31:57.020Z,26.58
2019-05-23T16:34:26.803Z,26.33
2019-05-23T16:36:56.273Z,26.49
2019-05-23T16:39:25.916Z,26.47
2019-05-23T16:41:55.926Z,26.40
2019-05-23T16:44:30.441Z,26.70
2019-05-23T16:47:00.087Z,26.59
2019-05-23T16:49:32.581Z,26.17
2019-05-23T16:52:03.925Z,26.00
2019-05-23T16:54:40.000Z,25.92
2019-05-23T16:57:36.861Z,25.94
2019-05-23T17:00:34.580Z,26.05
2019-05-23T17:03:12.660Z,26.30
2019-05-23T17:06:00.370Z,26.16
2019-05-23T17:08:50.185Z,25.93
2019-05-23T17:11:37.881Z,25.40
2019-05-23T17:14:12.788Z,24.96
2019-05-23T17:17:06.627Z,24.55
2019-05-23T17:20:01.289Z,24.17
2019-05-23T17:22:49.326Z,23.74
2019-05-23T17:25:46.958Z,23.48
2019-05-23T17:28:24.114Z,23.03
2019-05-23T17:31:05.876Z,22.83
2019-05-23T17:33:37.164Z,22.57
2019-05-23T17:36:08.508Z,22.52
2019-05-23T17:38:37.995Z,22.37
2019-05-23T17:41:09.452Z,22.20
2019-05-23T17:43:39.115Z,22.02
2019-05-23T17:46:08.614Z,21.73
2019-05-23T17:48:38.250Z,21.51
2019-05-23T17:51:10.185Z,21.30
2019-05-23T17:53:39.615Z,21.08
2019-05-23T17:56:11.946Z,20.87
2019-05-23T17:58:41.954Z,20.66
2019-05-23T18:01:11.421Z,20.47
2019-05-23T18:03:40.915Z,20.36
2019-05-23T18:06:10.762Z,20.22
2019-05-23T18:08:42.872Z,20.11
2019-05-23T18:11:12.836Z,19.96
2019-05-23T18:13:43.747Z,19.84
2019-05-23T18:16:14.047Z,19.71
2019-05-23T18:18:44.503Z,19.59
2019-05-23T18:21:14.090Z,19.48
2019-05-23T18:23:43.523Z,19.30
2019-05-23T18:26:12.967Z,19.15
2019-05-23T18:28:43.160Z,19.01
2019-05-23T18:31:17.018Z,18.91
2019-05-23T18:33:46.573Z,18.78
2019-05-23T18:36:16.135Z,18.65
2019-05-23T18:38:45.804Z,18.50
2019-05-23T18:41:15.520Z,18.35
2019-05-23T18:43:45.418Z,18.25
2019-05-23T18:46:20.379Z,18.19
2019-05-23T18:48:49.906Z,18.18
2019-05-23T18:51:19.443Z,18.12
2019-05-23T18:53:49.534Z,18.07
2019-05-23T18:56:19.016Z,17.97
2019-05-23T18:58:49.090Z,17.87
2019-05-23T19:01:25.073Z,17.76
2019-05-23T19:04:02.290Z,17.68
2019-05-23T19:06:31.824Z,17.60
2019-05-23T19:09:01.447Z,17.55
2019-05-23T19:11:31.887Z,17.44
2019-05-23T19:14:01.638Z,17.38
2019-05-23T19:16:32.829Z,17.28
2019-05-23T19:19:04.064Z,17.21
2019-05-23T19:21:34.445Z,17.12
2019-05-23T19:24:09.168Z,17.04
2019-05-23T19:26:39.083Z,16.93
2019-05-23T19:29:09.243Z,16.84
2019-05-23T19:31:39.419Z,16.78
2019-05-23T19:34:09.270Z,16.68
2019-05-23T19:36:39.311Z,16.57
2019-05-23T19:39:08.948Z,16.46
2019-05-23T19:41:38.808Z,16.38
2019-05-23T19:44:08.479Z,16.30
2019-05-23T19:46:38.270Z,16.22
2019-05-23T19:49:08.592Z,16.13
2019-05-23T19:51:41.768Z,16.04
2019-05-23T19:54:11.621Z,15.97
2019-05-23T19:56:41.198Z,15.86
2019-05-23T19:59:10.683Z,15.76
2019-05-23T20:02:11.253Z,15.65
2019-05-23T20:04:43.901Z,15.58
2019-05-23T20:07:15.478Z,15.49
2019-05-23T20:09:44.807Z,15.43
2019-05-23T20:12:15.511Z,15.36
2019-05-23T20:14:44.897Z,15.27
2019-05-23T20:17:14.717Z,15.19
2019-05-23T20:19:44.243Z,15.11
2019-05-23T20:22:13.794Z,15.05
2019-05-23T20:24:43.263Z,15.01
2019-05-23T20:27:14.497Z,14.93
2019-05-23T20:29:43.865Z,14.88
2019-05-23T20:32:13.447Z,14.83
2019-05-23T20:34:42.892Z,14.80
2019-05-23T20:37:12.362Z,14.77
2019-05-23T20:39:41.718Z,14.74
2019-05-23T20:42:12.255Z,14.70
2019-05-23T20:44:41.794Z,14.68
2019-05-23T20:47:11.648Z,14.65
2019-05-23T20:49:41.138Z,14.61
2019-05-23T20:52:10.578Z,14.57
2019-05-23T20:54:40.144Z,14.51
2019-05-23T20:57:09.692Z,14.46
2019-05-23T20:59:39.182Z,14.41
2019-05-23T21:02:08.704Z,14.37
2019-05-23T21:04:38.280Z,14.32
2019-05-23T21:07:07.667Z,14.21
2019-05-23T21:09:37.222Z,14.15
2019-05-23T21:12:07.844Z,14.10
2019-05-23T21:14:37.830Z,14.08
2019-05-23T21:17:07.561Z,14.07
2019-05-23T21:19:37.143Z,14.09
2019-05-23T21:22:06.789Z,14.10
2019-05-23T21:24:36.475Z,14.12
2019-05-23T21:27:05.913Z,14.16
2019-05-23T21:29:35.606Z,14.19
2019-05-23T21:32:05.191Z,14.24
2019-05-23T21:34:34.785Z,14.29
2019-05-23T21:37:04.400Z,14.33
2019-05-23T21:39:34.246Z,14.35
2019-05-23T21:42:04.319Z,14.39
2019-05-23T21:44:35.835Z,14.39
2019-05-23T21:47:05.654Z,14.40
2019-05-23T21:49:35.215Z,14.40
2019-05-23T21:52:05.311Z,14.39
2019-05-23T21:54:34.746Z,14.38
2019-05-23T21:57:04.196Z,14.34
2019-05-23T21:59:33.674Z,14.33
2019-05-23T22:02:34.750Z,14.30
2019-05-23T22:05:17.719Z,14.28
2019-05-23T22:07:47.727Z,14.30
2019-05-23T22:10:17.074Z,14.27
2019-05-23T22:13:01.834Z,14.26
2019-05-23T22:15:34.835Z,14.25
2019-05-23T22:18:04.589Z,14.24
2019-05-23T22:20:36.939Z,14.22
2019-05-23T22:23:06.708Z,14.20
2019-05-23T22:25:36.321Z,14.20
2019-05-23T22:28:05.731Z,14.18
2019-05-23T22:30:35.283Z,14.18
2019-05-23T22:33:05.752Z,14.15
2019-05-23T22:35:35.598Z,14.13
2019-05-23T22:38:05.635Z,14.10
2019-05-23T22:40:38.772Z,14.09
2019-05-23T22:43:20.751Z,14.07
2019-05-23T22:45:41.139Z,14.05
2019-05-23T22:48:10.559Z,14.03
2019-05-23T22:50:40.064Z,14.01
2019-05-23T22:53:09.452Z,13.96
2019-05-23T22:55:38.928Z,13.93
2019-05-23T22:58:08.405Z,13.91
2019-05-23T23:00:39.809Z,13.85
2019-05-23T23:03:09.278Z,13.82
2019-05-23T23:05:38.738Z,13.82
2019-05-23T23:08:08.376Z,13.81
2019-05-23T23:10:37.907Z,13.78
2019-05-23T23:13:07.487Z,13.73
2019-05-23T23:15:38.762Z,13.67
2019-05-23T23:18:08.516Z,13.61
2019-05-23T23:20:38.110Z,13.54
2019-05-23T23:23:07.579Z,13.50
2019-05-23T23:25:41.465Z,13.49
2019-05-23T23:28:10.857Z,13.46
2019-05-23T23:30:42.090Z,13.39
2019-05-23T23:33:11.480Z,13.37
2019-05-23T23:35:40.877Z,13.35
2019-05-23T23:38:10.515Z,13.34
2019-05-23T23:40:40.130Z,13.33
2019-05-23T23:43:09.597Z,13.30
2019-05-23T23:46:06.282Z,13.31
2019-05-23T23:48:54.739Z,13.27
2019-05-23T23:51:41.721Z,13.22
2019-05-23T23:54:29.139Z,13.16
2019-05-23T23:57:16.604Z,13.12
2019-05-23T23:59:45.003Z,13.09
